Terminal Aerodrome Forecast
Issued by NWS Wilmington, OH

Current Version | Previous Version | Text Only | Print | Product List | Glossary Off
Versions: 1 2 3 4 5 6 7 8 9 10 11 12 13 14 15 16 17 18 19 20 21

269
FTUS41 KILN 080539
TAFDAY
TAF
KDAY 080539Z 0806/0906 29012KT P6SM BKN090
     FM081200 27014G22KT P6SM SCT025
     FM081800 27014G24KT P6SM BKN028
     FM090300 28012G20KT P6SM OVC020=

USA.gov is the U.S. government's official web portal to all federal, state and local government web resources and services.